This is the latest recevied weather packets stored in our database for station/object I2HLY-3. If no packets are shown the sender has not sent any weather packets the latest 10 day(s).
| Time | Temp. | Humidity | Pressure | Rain* | Wind** | Luminosity | Snow |
|---|---|---|---|---|---|---|---|
| 1777606336 | 8.33° C | 73% | 1024.6 hPa | 0 mm | - | - | - |
| 1777605455 | 8.33° C | 77% | 1024.6 hPa | 0 mm | - | - | - |
| 1777604556 | 8.89° C | 73% | 1024.5 hPa | 0 mm | - | - | - |
| 1777603654 | 8.89° C | 69% | 1024.6 hPa | 0 mm | - | - | - |
| 1777602739 | 10° C | 66% | 1024.7 hPa | 0 mm | - | - | - |
| 1777601839 | 10.56° C | 60% | 1024.8 hPa | 0 mm | - | - | - |
| 1777600938 | 10.56° C | 60% | 1024.7 hPa | 0 mm | - | - | - |
| 1777600040 | 10.56° C | 61% | 1024.7 hPa | 0 mm | - | - | - |
| 1777599140 | 8.89° C | 66% | 1024.6 hPa | 0 mm | - | - | - |
| 1777598240 | 8.33° C | 74% | 1024.6 hPa | 0 mm | - | - | - |
| 1777597344 | 8.33° C | 75% | 1024.5 hPa | 0 mm | - | - | - |
| 1777596444 | 8.89° C | 71% | 1024.5 hPa | 0 mm | - | - | - |
| 1777595545 | 9.44° C | 68% | 1024.6 hPa | 0 mm | - | - | - |
| 1777594647 | 10° C | 68% | 1024.4 hPa | 0 mm | - | - | - |
| 1777593746 | 11.11° C | 63% | 1024.4 hPa | 0 mm | - | - | - |
| 1777592846 | 11.67° C | 58% | 1024.4 hPa | 0 mm | - | - | - |
| 1777591946 | 12.22° C | 59% | 1024.3 hPa | 0 mm | - | - | - |
| 1777591050 | 12.22° C | 61% | 1024.2 hPa | 0 mm | - | - | - |
| 1777590150 | 12.22° C | 61% | 1024.1 hPa | 0 mm | - | - | - |
| 1777589251 | 12.22° C | 62% | 1024.1 hPa | 0 mm | - | - | - |
| 1777588350 | 12.78° C | 62% | 1024 hPa | 0 mm | - | - | - |
| 1777587450 | 12.22° C | 66% | 1023.9 hPa | 0 mm | - | - | - |
| 1777586548 | 11.67° C | 70% | 1023.8 hPa | 0 mm | - | - | - |
| 1777585653 | 11.11° C | 78% | 1023.7 hPa | 0 mm | - | - | - |
| 1777584751 | 10.56° C | 86% | 1023.5 hPa | 0 mm | - | - | - |
* Rain latest hour (hover to see other rain measurements)
** Current wind speed in m/s (hover to see current wind gust speed)